Flight Briefing for CPX104

Departure Arrival
Ted Stevens Anchorage International Airport (PANC)
Click to view FAA NOTAMS
Seattle-Tacoma International Airport (KSEA)
Click to view FAA NOTAMS
Departure Time Arrival Time
N/A N/A
Aircraft Distance
B747-400BCF 1257nm
Departure METAR Arrival METAR
PANC 200853Z 01010G19KT 10SM SCT060 BKN070 OVC085 01/M05 A2986 RMK AO2 SLP113 T00111050 400440006 56022 KSEA 200853Z 09011KT 10SM CLR 19/M06 A2994 RMK AO2 SLP141 T01941056 58006
Suggested Route
NOEND4 NOEND LAIRE BKA DUGGS YYJ MARNR7


View recent IFR Routes data
Notes



Charts and Procedures

Charts for PANC
No chart available
Charts for KSEA
No chart available

Windy.com Weather Map